Airfield :
LOGIN :

Register | Disclaimer

   EN    FR    IT 

 










Legend :    VFR   Marginal VFR   IFR   Intensive IFR   Very Intensive IFR
Visi :
Ceiling :
>= 8 km
>= 3000ft
5 to 8 km
1000 to 3000 ft
1500m to 5 km
500 to 1000 ft
800 to 1500m
200 to 500 ft
< 800m
< 200 ft
Symbols :   Thunderstorms  Fog  Heavy snow  Heavy precipitations  Wind > 20 kt
SIGMETs :     Misc.  Thunderstorms  Icing  Turbulence  Mountain Waves  Volcanic Ashes







- Airport Elevation : 39 ft
- IATA code : ANR


EBAW - Anvers / Antwerpen Deurne

CURRENT METAR :
  • 201850Z 25011KT 220V290 9000 -DZ BKN004 BKN005 10/09 Q1012 RERA TEMPO 23015G27KT 3500 RADZ

EXPIRED METARs :
  • 201820Z 23010KT 4200 -RADZ BKN003 BKN005 10/09 Q1012 TEMPO 23015G27KT 2500 RADZ
  • 201750Z 24010KT 2600 RADZ BKN004 BKN005 10/09 Q1012 TEMPO 23015G27KT
  • 201720Z 23010KT 3600 DZ SCT004 BKN005 10/09 Q1012 TEMPO 24017G27KT 2500 RADZ BKN004
  • 201650Z 22009KT 5000 -DZ BKN003 BKN005 10/09 Q1012 TEMPO 24017G27KT 2500 RADZ BKN004
  • 201620Z 23010KT 3200 DZ BKN004 BKN005 10/09 Q1012 TEMPO 24017G27KT 2500 RADZ BKN004

TAF TAF EBAW
Valid from the 20 at 18:00 until the 21 at 03:00 UTC


201710Z 2018/2103 23015KT 6000 -RADZ SCT007 BKN009
TEMPO 2018/2020 23015G27KT
TEMPO 2018/2103 3500 RADZ BKN004
No reported NOTAMs for that airfield.



MET'MAP, your aeronautical weather chart ! - Copyright ORBIFLY December 2007 - Disclaimer

ORBIFLY MET'MAP TEAM :

Programming & Development : Alexandra Zaïnal
Concept & Development : Baudouin d'Aumeries
Co-Development & Prog : Marc-Olivier Méhu
Technical & hardware support : Manuel Goepfert

Contact : metmap@orbifly.com




SOURCES & CREDITS :

   NOAA